sensor_id;sensor_type;location;lat;lon;timestamp;P1;durP1;ratioP1;P2;durP2;ratioP2
74941;SDS011;63506;49.346;8.798;2024-03-23T00:54:29;7.72;;;4.90;;
74941;SDS011;63506;49.346;8.798;2024-03-23T00:57:16;8.40;;;4.82;;
74941;SDS011;63506;49.346;8.798;2024-03-23T01:00:03;9.23;;;5.60;;
74941;SDS011;63506;49.346;8.798;2024-03-23T01:02:46;8.80;;;5.10;;
74941;SDS011;63506;49.346;8.798;2024-03-23T01:05:30;9.35;;;5.03;;
74941;SDS011;63506;49.346;8.798;2024-03-23T01:08:14;9.32;;;4.80;;
74941;SDS011;63506;49.346;8.798;2024-03-23T01:11:01;10.10;;;5.25;;
74941;SDS011;63506;49.346;8.798;2024-03-23T01:13:46;9.15;;;4.45;;
74941;SDS011;63506;49.346;8.798;2024-03-23T01:16:30;8.05;;;4.95;;
74941;SDS011;63506;49.346;8.798;2024-03-23T01:19:16;9.68;;;4.82;;
74941;SDS011;63506;49.346;8.798;2024-03-23T01:21:58;10.35;;;5.53;;
74941;SDS011;63506;49.346;8.798;2024-03-23T01:24:42;9.40;;;5.30;;
74941;SDS011;63506;49.346;8.798;2024-03-23T01:27:27;8.23;;;4.88;;
74941;SDS011;63506;49.346;8.798;2024-03-23T01:30:11;8.77;;;4.63;;
74941;SDS011;63506;49.346;8.798;2024-03-23T01:33:01;9.43;;;4.53;;
74941;SDS011;63506;49.346;8.798;2024-03-23T01:35:46;9.30;;;4.78;;
74941;SDS011;63506;49.346;8.798;2024-03-23T01:38:32;7.75;;;4.57;;
74941;SDS011;63506;49.346;8.798;2024-03-23T01:41:16;11.85;;;5.05;;
74941;SDS011;63506;49.346;8.798;2024-03-23T01:44:05;7.75;;;5.18;;
74941;SDS011;63506;49.346;8.798;2024-03-23T01:46:50;8.13;;;4.40;;
74941;SDS011;63506;49.346;8.798;2024-03-23T01:49:35;9.85;;;4.80;;
74941;SDS011;63506;49.346;8.798;2024-03-23T01:52:22;8.43;;;4.80;;
74941;SDS011;63506;49.346;8.798;2024-03-23T01:55:06;8.65;;;5.03;;
74941;SDS011;63506;49.346;8.798;2024-03-23T01:57:50;12.23;;;5.47;;
74941;SDS011;63506;49.346;8.798;2024-03-23T02:03:23;8.27;;;4.97;;
74941;SDS011;63506;49.346;8.798;2024-03-23T02:06:08;9.98;;;5.30;;
74941;SDS011;63506;49.346;8.798;2024-03-23T02:08:52;6.97;;;4.90;;
74941;SDS011;63506;49.346;8.798;2024-03-23T02:11:37;8.18;;;5.20;;
74941;SDS011;63506;49.346;8.798;2024-03-23T02:14:23;10.05;;;5.10;;
74941;SDS011;63506;49.346;8.798;2024-03-23T02:19:52;8.32;;;4.78;;
74941;SDS011;63506;49.346;8.798;2024-03-23T02:22:36;10.27;;;4.55;;
74941;SDS011;63506;49.346;8.798;2024-03-23T02:25:21;6.57;;;4.30;;
74941;SDS011;63506;49.346;8.798;2024-03-23T02:28:07;7.72;;;5.20;;
74941;SDS011;63506;49.346;8.798;2024-03-23T02:30:49;7.38;;;4.68;;
74941;SDS011;63506;49.346;8.798;2024-03-23T02:33:31;7.68;;;5.38;;
74941;SDS011;63506;49.346;8.798;2024-03-23T02:36:13;9.95;;;5.30;;
74941;SDS011;63506;49.346;8.798;2024-03-23T02:38:54;10.45;;;5.28;;
74941;SDS011;63506;49.346;8.798;2024-03-23T02:41:43;9.18;;;5.05;;
74941;SDS011;63506;49.346;8.798;2024-03-23T02:44:27;11.77;;;4.60;;
74941;SDS011;63506;49.346;8.798;2024-03-23T02:47:11;7.50;;;4.75;;
74941;SDS011;63506;49.346;8.798;2024-03-23T02:49:55;7.32;;;4.47;;
74941;SDS011;63506;49.346;8.798;2024-03-23T02:52:36;7.63;;;4.47;;
74941;SDS011;63506;49.346;8.798;2024-03-23T02:55:23;5.47;;;4.20;;
74941;SDS011;63506;49.346;8.798;2024-03-23T02:58:07;8.38;;;4.45;;
74941;SDS011;63506;49.346;8.798;2024-03-23T03:00:49;6.60;;;4.72;;
74941;SDS011;63506;49.346;8.798;2024-03-23T03:03:30;7.05;;;4.50;;
74941;SDS011;63506;49.346;8.798;2024-03-23T03:06:22;6.13;;;4.13;;
74941;SDS011;63506;49.346;8.798;2024-03-23T03:09:09;7.20;;;4.38;;
74941;SDS011;63506;49.346;8.798;2024-03-23T03:14:37;6.10;;;4.57;;
74941;SDS011;63506;49.346;8.798;2024-03-23T03:17:18;8.40;;;5.45;;
74941;SDS011;63506;49.346;8.798;2024-03-23T03:20:04;11.88;;;5.45;;
74941;SDS011;63506;49.346;8.798;2024-03-23T03:22:50;10.18;;;5.53;;
74941;SDS011;63506;49.346;8.798;2024-03-23T03:25:34;11.45;;;4.97;;
74941;SDS011;63506;49.346;8.798;2024-03-23T03:28:18;8.35;;;4.18;;
74941;SDS011;63506;49.346;8.798;2024-03-23T03:31:04;10.88;;;4.65;;
74941;SDS011;63506;49.346;8.798;2024-03-23T03:33:49;9.60;;;4.95;;
74941;SDS011;63506;49.346;8.798;2024-03-23T03:36:37;7.72;;;4.68;;
74941;SDS011;63506;49.346;8.798;2024-03-23T03:39:21;8.23;;;4.43;;
74941;SDS011;63506;49.346;8.798;2024-03-23T03:42:04;10.10;;;5.15;;
74941;SDS011;63506;49.346;8.798;2024-03-23T03:44:49;9.75;;;4.60;;
74941;SDS011;63506;49.346;8.798;2024-03-23T03:47:38;9.43;;;5.32;;
74941;SDS011;63506;49.346;8.798;2024-03-23T03:50:21;10.43;;;5.30;;
74941;SDS011;63506;49.346;8.798;2024-03-23T03:53:05;6.03;;;3.95;;
74941;SDS011;63506;49.346;8.798;2024-03-23T03:55:49;7.90;;;4.55;;
74941;SDS011;63506;49.346;8.798;2024-03-23T03:58:36;7.95;;;4.00;;
74941;SDS011;63506;49.346;8.798;2024-03-23T04:01:17;8.60;;;4.40;;
74941;SDS011;63506;49.346;8.798;2024-03-23T04:04:02;10.25;;;4.30;;
74941;SDS011;63506;49.346;8.798;2024-03-23T04:06:43;8.32;;;4.60;;
74941;SDS011;63506;49.346;8.798;2024-03-23T04:09:28;7.93;;;4.88;;
74941;SDS011;63506;49.346;8.798;2024-03-23T04:12:12;10.13;;;4.75;;
74941;SDS011;63506;49.346;8.798;2024-03-23T04:14:56;11.10;;;4.70;;
74941;SDS011;63506;49.346;8.798;2024-03-23T04:17:38;8.85;;;4.97;;
74941;SDS011;63506;49.346;8.798;2024-03-23T04:20:22;9.07;;;4.38;;
74941;SDS011;63506;49.346;8.798;2024-03-23T04:23:04;10.95;;;6.25;;
74941;SDS011;63506;49.346;8.798;2024-03-23T04:25:51;10.82;;;5.13;;
74941;SDS011;63506;49.346;8.798;2024-03-23T04:28:38;9.75;;;5.60;;
74941;SDS011;63506;49.346;8.798;2024-03-23T04:31:19;13.98;;;5.93;;
74941;SDS011;63506;49.346;8.798;2024-03-23T04:34:01;11.90;;;5.95;;
74941;SDS011;63506;49.346;8.798;2024-03-23T04:36:46;14.18;;;6.75;;
74941;SDS011;63506;49.346;8.798;2024-03-23T04:39:30;12.57;;;6.07;;
74941;SDS011;63506;49.346;8.798;2024-03-23T04:42:14;13.95;;;6.78;;
74941;SDS011;63506;49.346;8.798;2024-03-23T04:44:56;11.73;;;5.55;;
74941;SDS011;63506;49.346;8.798;2024-03-23T04:47:38;10.13;;;5.30;;
74941;SDS011;63506;49.346;8.798;2024-03-23T04:50:20;14.55;;;5.53;;
74941;SDS011;63506;49.346;8.798;2024-03-23T04:53:07;11.98;;;5.68;;
74941;SDS011;63506;49.346;8.798;2024-03-23T04:55:51;11.27;;;5.55;;
74941;SDS011;63506;49.346;8.798;2024-03-23T04:58:38;10.15;;;5.53;;
74941;SDS011;63506;49.346;8.798;2024-03-23T05:01:20;16.02;;;6.13;;
74941;SDS011;63506;49.346;8.798;2024-03-23T05:04:06;14.32;;;5.75;;
74941;SDS011;63506;49.346;8.798;2024-03-23T05:06:48;10.45;;;4.75;;
74941;SDS011;63506;49.346;8.798;2024-03-23T05:09:37;10.98;;;4.93;;
74941;SDS011;63506;49.346;8.798;2024-03-23T05:12:21;8.70;;;4.40;;
74941;SDS011;63506;49.346;8.798;2024-03-23T05:15:05;10.45;;;4.95;;
74941;SDS011;63506;49.346;8.798;2024-03-23T05:17:53;8.20;;;4.30;;
74941;SDS011;63506;49.346;8.798;2024-03-23T05:20:37;9.65;;;4.05;;
74941;SDS011;63506;49.346;8.798;2024-03-23T05:23:21;9.02;;;4.47;;
74941;SDS011;63506;49.346;8.798;2024-03-23T05:26:07;9.75;;;3.55;;
74941;SDS011;63506;49.346;8.798;2024-03-23T05:28:54;9.50;;;3.63;;
74941;SDS011;63506;49.346;8.798;2024-03-23T05:31:35;6.75;;;4.10;;
74941;SDS011;63506;49.346;8.798;2024-03-23T05:34:19;7.05;;;3.42;;
74941;SDS011;63506;49.346;8.798;2024-03-23T05:37:06;8.30;;;3.25;;
74941;SDS011;63506;49.346;8.798;2024-03-23T05:39:48;4.15;;;2.50;;
74941;SDS011;63506;49.346;8.798;2024-03-23T05:42:35;5.35;;;2.25;;
74941;SDS011;63506;49.346;8.798;2024-03-23T05:45:19;5.80;;;2.65;;
74941;SDS011;63506;49.346;8.798;2024-03-23T05:48:01;6.68;;;2.08;;
74941;SDS011;63506;49.346;8.798;2024-03-23T05:50:48;6.00;;;1.60;;
74941;SDS011;63506;49.346;8.798;2024-03-23T05:53:32;3.53;;;2.00;;
74941;SDS011;63506;49.346;8.798;2024-03-23T05:56:19;3.38;;;1.48;;
74941;SDS011;63506;49.346;8.798;2024-03-23T05:59:04;5.75;;;1.50;;
74941;SDS011;63506;49.346;8.798;2024-03-23T06:01:48;3.78;;;1.48;;
74941;SDS011;63506;49.346;8.798;2024-03-23T06:04:29;3.22;;;1.98;;
74941;SDS011;63506;49.346;8.798;2024-03-23T06:07:11;3.75;;;2.22;;
74941;SDS011;63506;49.346;8.798;2024-03-23T06:09:58;4.45;;;2.53;;
74941;SDS011;63506;49.346;8.798;2024-03-23T06:12:40;6.85;;;2.95;;
74941;SDS011;63506;49.346;8.798;2024-03-23T06:15:24;4.05;;;2.33;;
74941;SDS011;63506;49.346;8.798;2024-03-23T06:18:06;4.82;;;2.45;;
74941;SDS011;63506;49.346;8.798;2024-03-23T06:20:48;3.63;;;2.05;;
74941;SDS011;63506;49.346;8.798;2024-03-23T06:26:13;4.30;;;2.53;;
74941;SDS011;63506;49.346;8.798;2024-03-23T06:28:55;3.92;;;2.53;;
74941;SDS011;63506;49.346;8.798;2024-03-23T06:31:42;4.85;;;2.33;;
74941;SDS011;63506;49.346;8.798;2024-03-23T06:34:26;3.22;;;1.88;;
74941;SDS011;63506;49.346;8.798;2024-03-23T06:37:08;2.08;;;1.58;;
74941;SDS011;63506;49.346;8.798;2024-03-23T06:39:52;3.25;;;1.50;;
74941;SDS011;63506;49.346;8.798;2024-03-23T06:42:34;2.38;;;1.60;;
74941;SDS011;63506;49.346;8.798;2024-03-23T06:45:16;3.33;;;1.88;;
74941;SDS011;63506;49.346;8.798;2024-03-23T06:48:03;5.70;;;1.40;;
74941;SDS011;63506;49.346;8.798;2024-03-23T06:50:48;2.30;;;1.25;;
74941;SDS011;63506;49.346;8.798;2024-03-23T06:56:13;0.85;;;0.40;;
74941;SDS011;63506;49.346;8.798;2024-03-23T06:58:55;1.67;;;0.90;;
74941;SDS011;63506;49.346;8.798;2024-03-23T07:01:39;0.50;;;0.40;;
74941;SDS011;63506;49.346;8.798;2024-03-23T07:04:26;1.08;;;0.45;;
74941;SDS011;63506;49.346;8.798;2024-03-23T07:07:10;1.02;;;0.40;;
74941;SDS011;63506;49.346;8.798;2024-03-23T07:09:54;0.45;;;0.30;;
74941;SDS011;63506;49.346;8.798;2024-03-23T07:12:35;0.40;;;0.20;;
74941;SDS011;63506;49.346;8.798;2024-03-23T07:15:19;0.50;;;0.20;;
74941;SDS011;63506;49.346;8.798;2024-03-23T07:18:04;0.55;;;0.30;;
74941;SDS011;63506;49.346;8.798;2024-03-23T07:20:55;1.00;;;0.45;;
74941;SDS011;63506;49.346;8.798;2024-03-23T07:23:41;0.68;;;0.30;;
74941;SDS011;63506;49.346;8.798;2024-03-23T07:26:28;0.28;;;0.17;;
74941;SDS011;63506;49.346;8.798;2024-03-23T07:29:09;0.30;;;0.20;;
74941;SDS011;63506;49.346;8.798;2024-03-23T07:31:54;0.30;;;0.10;;
74941;SDS011;63506;49.346;8.798;2024-03-23T07:37:24;0.20;;;0.20;;
74941;SDS011;63506;49.346;8.798;2024-03-23T07:40:06;0.80;;;0.30;;
74941;SDS011;63506;49.346;8.798;2024-03-23T07:42:48;0.40;;;0.30;;
74941;SDS011;63506;49.346;8.798;2024-03-23T07:45:30;0.47;;;0.35;;
74941;SDS011;63506;49.346;8.798;2024-03-23T07:48:12;0.55;;;0.30;;
74941;SDS011;63506;49.346;8.798;2024-03-23T07:51:00;0.30;;;0.25;;
74941;SDS011;63506;49.346;8.798;2024-03-23T07:53:47;0.10;;;0.10;;
74941;SDS011;63506;49.346;8.798;2024-03-23T07:56:29;0.30;;;0.20;;
74941;SDS011;63506;49.346;8.798;2024-03-23T07:59:11;0.20;;;0.10;;
74941;SDS011;63506;49.346;8.798;2024-03-23T08:01:57;0.35;;;0.30;;
74941;SDS011;63506;49.346;8.798;2024-03-23T08:04:43;1.08;;;0.60;;
74941;SDS011;63506;49.346;8.798;2024-03-23T08:07:30;1.02;;;0.40;;
74941;SDS011;63506;49.346;8.798;2024-03-23T08:10:15;1.20;;;0.60;;
74941;SDS011;63506;49.346;8.798;2024-03-23T08:12:59;2.70;;;0.70;;
74941;SDS011;63506;49.346;8.798;2024-03-23T08:15:41;1.85;;;0.50;;
74941;SDS011;63506;49.346;8.798;2024-03-23T08:21:07;1.80;;;0.55;;
74941;SDS011;63506;49.346;8.798;2024-03-23T08:23:51;1.50;;;0.50;;
74941;SDS011;63506;49.346;8.798;2024-03-23T08:26:37;1.17;;;0.50;;
74941;SDS011;63506;49.346;8.798;2024-03-23T08:29:19;1.38;;;0.63;;
74941;SDS011;63506;49.346;8.798;2024-03-23T08:32:01;5.13;;;0.70;;
74941;SDS011;63506;49.346;8.798;2024-03-23T08:34:47;2.33;;;0.73;;
74941;SDS011;63506;49.346;8.798;2024-03-23T08:37:29;2.05;;;1.13;;
74941;SDS011;63506;49.346;8.798;2024-03-23T08:40:11;2.55;;;0.60;;
74941;SDS011;63506;49.346;8.798;2024-03-23T08:42:55;1.90;;;0.90;;
74941;SDS011;63506;49.346;8.798;2024-03-23T08:45:42;3.10;;;0.93;;
74941;SDS011;63506;49.346;8.798;2024-03-23T08:48:28;3.65;;;1.10;;
74941;SDS011;63506;49.346;8.798;2024-03-23T08:51:10;1.95;;;1.13;;
74941;SDS011;63506;49.346;8.798;2024-03-23T08:53:58;2.92;;;1.10;;
74941;SDS011;63506;49.346;8.798;2024-03-23T08:56:42;1.83;;;1.00;;
74941;SDS011;63506;49.346;8.798;2024-03-23T08:59:28;3.10;;;1.30;;
74941;SDS011;63506;49.346;8.798;2024-03-23T09:02:15;3.95;;;1.65;;
74941;SDS011;63506;49.346;8.798;2024-03-23T09:04:57;2.03;;;1.40;;
74941;SDS011;63506;49.346;8.798;2024-03-23T09:07:41;2.47;;;1.02;;
74941;SDS011;63506;49.346;8.798;2024-03-23T09:10:23;2.95;;;1.10;;
74941;SDS011;63506;49.346;8.798;2024-03-23T09:13:07;5.55;;;1.63;;
74941;SDS011;63506;49.346;8.798;2024-03-23T09:15:54;4.45;;;1.50;;
74941;SDS011;63506;49.346;8.798;2024-03-23T09:18:38;4.32;;;1.38;;
74941;SDS011;63506;49.346;8.798;2024-03-23T09:21:20;2.10;;;0.82;;
74941;SDS011;63506;49.346;8.798;2024-03-23T09:24:02;3.78;;;1.50;;
74941;SDS011;63506;49.346;8.798;2024-03-23T09:26:44;6.32;;;1.70;;
74941;SDS011;63506;49.346;8.798;2024-03-23T09:29:26;2.97;;;1.48;;
74941;SDS011;63506;49.346;8.798;2024-03-23T09:32:13;1.63;;;1.20;;
74941;SDS011;63506;49.346;8.798;2024-03-23T09:34:59;3.88;;;1.30;;
74941;SDS011;63506;49.346;8.798;2024-03-23T09:37:42;3.40;;;1.65;;
74941;SDS011;63506;49.346;8.798;2024-03-23T09:40:25;5.70;;;1.38;;
74941;SDS011;63506;49.346;8.798;2024-03-23T09:43:09;2.65;;;1.35;;
74941;SDS011;63506;49.346;8.798;2024-03-23T09:45:53;5.40;;;1.90;;
74941;SDS011;63506;49.346;8.798;2024-03-23T09:48:42;5.10;;;1.48;;
74941;SDS011;63506;49.346;8.798;2024-03-23T09:51:27;7.13;;;1.60;;
74941;SDS011;63506;49.346;8.798;2024-03-23T09:54:09;5.18;;;1.60;;
74941;SDS011;63506;49.346;8.798;2024-03-23T09:56:50;5.07;;;1.50;;
74941;SDS011;63506;49.346;8.798;2024-03-23T09:59:34;3.00;;;1.30;;
74941;SDS011;63506;49.346;8.798;2024-03-23T10:02:18;3.95;;;1.63;;
74941;SDS011;63506;49.346;8.798;2024-03-23T10:05:03;2.80;;;1.45;;
74941;SDS011;63506;49.346;8.798;2024-03-23T10:07:46;4.90;;;1.45;;
74941;SDS011;63506;49.346;8.798;2024-03-23T10:10:27;5.47;;;1.33;;
74941;SDS011;63506;49.346;8.798;2024-03-23T10:13:23;3.42;;;1.27;;
74941;SDS011;63506;49.346;8.798;2024-03-23T10:16:06;4.15;;;1.38;;
74941;SDS011;63506;49.346;8.798;2024-03-23T10:18:48;4.13;;;1.27;;
74941;SDS011;63506;49.346;8.798;2024-03-23T10:21:33;6.15;;;1.50;;
74941;SDS011;63506;49.346;8.798;2024-03-23T10:24:15;2.63;;;1.45;;
74941;SDS011;63506;49.346;8.798;2024-03-23T10:27:01;4.70;;;1.55;;
74941;SDS011;63506;49.346;8.798;2024-03-23T10:29:48;5.63;;;1.40;;
74941;SDS011;63506;49.346;8.798;2024-03-23T10:32:32;5.47;;;1.23;;
74941;SDS011;63506;49.346;8.798;2024-03-23T10:35:18;8.50;;;1.80;;
74941;SDS011;63506;49.346;8.798;2024-03-23T10:38:05;7.18;;;1.52;;
74941;SDS011;63506;49.346;8.798;2024-03-23T10:40:49;6.30;;;1.52;;
74941;SDS011;63506;49.346;8.798;2024-03-23T10:43:34;5.22;;;1.65;;
74941;SDS011;63506;49.346;8.798;2024-03-23T10:46:17;4.13;;;1.13;;
74941;SDS011;63506;49.346;8.798;2024-03-23T10:49:01;6.43;;;1.55;;
74941;SDS011;63506;49.346;8.798;2024-03-23T10:51:43;7.18;;;1.40;;
74941;SDS011;63506;49.346;8.798;2024-03-23T10:54:32;3.55;;;1.30;;
74941;SDS011;63506;49.346;8.798;2024-03-23T10:57:15;6.45;;;1.48;;
74941;SDS011;63506;49.346;8.798;2024-03-23T10:59:59;6.50;;;1.30;;
74941;SDS011;63506;49.346;8.798;2024-03-23T11:02:43;6.85;;;1.40;;
74941;SDS011;63506;49.346;8.798;2024-03-23T11:05:28;2.85;;;1.10;;
74941;SDS011;63506;49.346;8.798;2024-03-23T11:08:10;4.30;;;1.45;;
74941;SDS011;63506;49.346;8.798;2024-03-23T11:11:17;3.63;;;1.63;;
74941;SDS011;63506;49.346;8.798;2024-03-23T11:14:01;4.70;;;1.85;;
74941;SDS011;63506;49.346;8.798;2024-03-23T11:17:08;5.75;;;1.20;;
74941;SDS011;63506;49.346;8.798;2024-03-23T11:19:53;5.03;;;1.13;;
74941;SDS011;63506;49.346;8.798;2024-03-23T11:22:39;3.60;;;1.10;;
74941;SDS011;63506;49.346;8.798;2024-03-23T11:25:23;3.53;;;1.25;;
74941;SDS011;63506;49.346;8.798;2024-03-23T11:28:11;5.82;;;1.60;;
74941;SDS011;63506;49.346;8.798;2024-03-23T11:30:56;5.07;;;1.30;;
74941;SDS011;63506;49.346;8.798;2024-03-23T11:33:40;5.88;;;1.10;;
74941;SDS011;63506;49.346;8.798;2024-03-23T11:36:24;2.70;;;0.88;;
74941;SDS011;63506;49.346;8.798;2024-03-23T11:39:13;5.10;;;1.10;;
74941;SDS011;63506;49.346;8.798;2024-03-23T11:41:56;2.50;;;0.90;;
74941;SDS011;63506;49.346;8.798;2024-03-23T11:44:41;2.47;;;0.90;;
74941;SDS011;63506;49.346;8.798;2024-03-23T11:47:22;3.88;;;1.02;;
74941;SDS011;63506;49.346;8.798;2024-03-23T11:52:50;5.50;;;1.00;;
74941;SDS011;63506;49.346;8.798;2024-03-23T11:55:38;2.28;;;0.82;;
74941;SDS011;63506;49.346;8.798;2024-03-23T11:58:27;3.45;;;0.82;;
74941;SDS011;63506;49.346;8.798;2024-03-23T12:01:14;3.67;;;1.05;;
74941;SDS011;63506;49.346;8.798;2024-03-23T12:03:56;7.78;;;1.27;;
74941;SDS011;63506;49.346;8.798;2024-03-23T12:06:43;2.58;;;0.93;;
74941;SDS011;63506;49.346;8.798;2024-03-23T12:09:26;4.53;;;1.30;;
74941;SDS011;63506;49.346;8.798;2024-03-23T12:12:12;2.95;;;1.10;;
74941;SDS011;63506;49.346;8.798;2024-03-23T12:15:01;2.42;;;0.75;;
74941;SDS011;63506;49.346;8.798;2024-03-23T12:17:49;4.40;;;2.53;;
74941;SDS011;63506;49.346;8.798;2024-03-23T12:20:33;2.03;;;1.08;;
74941;SDS011;63506;49.346;8.798;2024-03-23T12:23:17;2.75;;;1.77;;
74941;SDS011;63506;49.346;8.798;2024-03-23T12:26:01;4.03;;;1.55;;
74941;SDS011;63506;49.346;8.798;2024-03-23T12:28:46;4.47;;;2.00;;
74941;SDS011;63506;49.346;8.798;2024-03-23T12:31:32;4.05;;;2.10;;
74941;SDS011;63506;49.346;8.798;2024-03-23T12:34:16;4.00;;;2.83;;
74941;SDS011;63506;49.346;8.798;2024-03-23T12:37:01;3.40;;;1.25;;
74941;SDS011;63506;49.346;8.798;2024-03-23T12:42:26;3.55;;;1.30;;
74941;SDS011;63506;49.346;8.798;2024-03-23T12:45:08;2.40;;;1.30;;
74941;SDS011;63506;49.346;8.798;2024-03-23T12:47:55;7.35;;;1.77;;
74941;SDS011;63506;49.346;8.798;2024-03-23T12:53:25;4.07;;;1.50;;
74941;SDS011;63506;49.346;8.798;2024-03-23T12:56:11;3.88;;;1.30;;
74941;SDS011;63506;49.346;8.798;2024-03-23T12:58:56;2.30;;;1.30;;
74941;SDS011;63506;49.346;8.798;2024-03-23T13:01:42;1.77;;;1.02;;
74941;SDS011;63506;49.346;8.798;2024-03-23T13:04:24;1.77;;;1.00;;
74941;SDS011;63506;49.346;8.798;2024-03-23T13:07:09;1.25;;;0.80;;
74941;SDS011;63506;49.346;8.798;2024-03-23T13:09:53;2.70;;;1.10;;
74941;SDS011;63506;49.346;8.798;2024-03-23T13:12:35;1.45;;;0.75;;
74941;SDS011;63506;49.346;8.798;2024-03-23T13:15:19;5.60;;;1.00;;
74941;SDS011;63506;49.346;8.798;2024-03-23T13:18:01;3.22;;;0.82;;
74941;SDS011;63506;49.346;8.798;2024-03-23T13:20:47;6.85;;;2.53;;
74941;SDS011;63506;49.346;8.798;2024-03-23T13:26:17;2.35;;;0.80;;
74941;SDS011;63506;49.346;8.798;2024-03-23T13:28:59;0.98;;;0.40;;
74941;SDS011;63506;49.346;8.798;2024-03-23T13:31:43;0.77;;;0.35;;
74941;SDS011;63506;49.346;8.798;2024-03-23T13:34:27;1.23;;;0.70;;
74941;SDS011;63506;49.346;8.798;2024-03-23T13:37:09;0.80;;;0.32;;
74941;SDS011;63506;49.346;8.798;2024-03-23T13:39:53;1.60;;;0.50;;
74941;SDS011;63506;49.346;8.798;2024-03-23T13:42:40;0.90;;;0.28;;
74941;SDS011;63506;49.346;8.798;2024-03-23T13:45:24;0.85;;;0.45;;
74941;SDS011;63506;49.346;8.798;2024-03-23T13:48:10;0.95;;;0.40;;
74941;SDS011;63506;49.346;8.798;2024-03-23T13:50:57;0.47;;;0.20;;
74941;SDS011;63506;49.346;8.798;2024-03-23T13:53:39;0.32;;;0.30;;
74941;SDS011;63506;49.346;8.798;2024-03-23T13:56:23;0.73;;;0.38;;
74941;SDS011;63506;49.346;8.798;2024-03-23T13:59:05;0.70;;;0.30;;
74941;SDS011;63506;49.346;8.798;2024-03-23T14:01:51;5.45;;;0.93;;
74941;SDS011;63506;49.346;8.798;2024-03-23T14:04:33;0.90;;;0.32;;
74941;SDS011;63506;49.346;8.798;2024-03-23T14:07:15;1.88;;;0.50;;
74941;SDS011;63506;49.346;8.798;2024-03-23T14:10:02;0.85;;;0.40;;
74941;SDS011;63506;49.346;8.798;2024-03-23T14:12:49;2.03;;;0.32;;
74941;SDS011;63506;49.346;8.798;2024-03-23T14:15:33;2.50;;;0.57;;
74941;SDS011;63506;49.346;8.798;2024-03-23T14:18:19;2.70;;;0.38;;
74941;SDS011;63506;49.346;8.798;2024-03-23T14:21:02;2.42;;;0.50;;
74941;SDS011;63506;49.346;8.798;2024-03-23T14:23:46;0.73;;;0.43;;
74941;SDS011;63506;49.346;8.798;2024-03-23T14:26:28;5.03;;;0.82;;
74941;SDS011;63506;49.346;8.798;2024-03-23T14:29:12;0.73;;;0.30;;
74941;SDS011;63506;49.346;8.798;2024-03-23T14:31:56;2.55;;;0.47;;
74941;SDS011;63506;49.346;8.798;2024-03-23T14:34:38;0.90;;;0.50;;
74941;SDS011;63506;49.346;8.798;2024-03-23T14:37:19;2.35;;;0.70;;
74941;SDS011;63506;49.346;8.798;2024-03-23T14:40:04;1.13;;;0.47;;
74941;SDS011;63506;49.346;8.798;2024-03-23T14:42:48;2.00;;;0.60;;
74941;SDS011;63506;49.346;8.798;2024-03-23T14:45:35;0.82;;;0.40;;
74941;SDS011;63506;49.346;8.798;2024-03-23T14:48:17;2.67;;;0.47;;
74941;SDS011;63506;49.346;8.798;2024-03-23T14:51:01;3.50;;;0.40;;
74941;SDS011;63506;49.346;8.798;2024-03-23T14:53:45;1.05;;;0.30;;
74941;SDS011;63506;49.346;8.798;2024-03-23T14:56:27;0.85;;;0.30;;
74941;SDS011;63506;49.346;8.798;2024-03-23T14:59:11;1.23;;;0.30;;
74941;SDS011;63506;49.346;8.798;2024-03-23T15:02:00;0.52;;;0.20;;
74941;SDS011;63506;49.346;8.798;2024-03-23T15:04:44;1.48;;;0.40;;
74941;SDS011;63506;49.346;8.798;2024-03-23T15:07:26;0.70;;;0.30;;
74941;SDS011;63506;49.346;8.798;2024-03-23T15:10:08;2.55;;;0.55;;
74941;SDS011;63506;49.346;8.798;2024-03-23T15:12:52;1.48;;;0.40;;
74941;SDS011;63506;49.346;8.798;2024-03-23T15:15:37;2.70;;;0.40;;
74941;SDS011;63506;49.346;8.798;2024-03-23T15:18:25;1.27;;;0.28;;
74941;SDS011;63506;49.346;8.798;2024-03-23T15:21:11;2.05;;;0.35;;
74941;SDS011;63506;49.346;8.798;2024-03-23T15:23:55;0.70;;;0.32;;
74941;SDS011;63506;49.346;8.798;2024-03-23T15:26:39;3.45;;;0.77;;
74941;SDS011;63506;49.346;8.798;2024-03-23T15:29:21;0.47;;;0.32;;
74941;SDS011;63506;49.346;8.798;2024-03-23T15:32:05;2.33;;;0.50;;
74941;SDS011;63506;49.346;8.798;2024-03-23T15:34:50;1.55;;;0.50;;
74941;SDS011;63506;49.346;8.798;2024-03-23T15:37:34;2.80;;;0.63;;
74941;SDS011;63506;49.346;8.798;2024-03-23T15:40:16;0.65;;;0.60;;
74941;SDS011;63506;49.346;8.798;2024-03-23T15:42:57;4.10;;;0.65;;
74941;SDS011;63506;49.346;8.798;2024-03-23T15:45:39;3.05;;;0.88;;
74941;SDS011;63506;49.346;8.798;2024-03-23T15:48:23;0.50;;;0.32;;
74941;SDS011;63506;49.346;8.798;2024-03-23T15:51:09;0.82;;;0.50;;
74941;SDS011;63506;49.346;8.798;2024-03-23T15:53:56;3.03;;;0.70;;
74941;SDS011;63506;49.346;8.798;2024-03-23T15:56:38;2.28;;;0.40;;
74941;SDS011;63506;49.346;8.798;2024-03-23T15:59:22;2.90;;;0.40;;
74941;SDS011;63506;49.346;8.798;2024-03-23T16:02:03;2.40;;;0.50;;
74941;SDS011;63506;49.346;8.798;2024-03-23T16:04:47;2.60;;;0.73;;
74941;SDS011;63506;49.346;8.798;2024-03-23T16:10:18;3.92;;;0.38;;
74941;SDS011;63506;49.346;8.798;2024-03-23T16:13:02;0.10;;;0.05;;
74941;SDS011;63506;49.346;8.798;2024-03-23T16:18:37;0.10;;;0.10;;
74941;SDS011;63506;49.346;8.798;2024-03-23T16:21:22;0.20;;;0.10;;
74941;SDS011;63506;49.346;8.798;2024-03-23T16:26:52;0.40;;;0.40;;
74941;SDS011;63506;49.346;8.798;2024-03-23T16:29:34;0.57;;;0.22;;
74941;SDS011;63506;49.346;8.798;2024-03-23T16:32:16;0.77;;;0.40;;
74941;SDS011;63506;49.346;8.798;2024-03-23T16:34:57;0.47;;;0.20;;
74941;SDS011;63506;49.346;8.798;2024-03-23T16:40:25;0.88;;;0.38;;
74941;SDS011;63506;49.346;8.798;2024-03-23T16:43:09;0.50;;;0.40;;
74941;SDS011;63506;49.346;8.798;2024-03-23T16:45:52;0.70;;;0.43;;
74941;SDS011;63506;49.346;8.798;2024-03-23T16:48:40;0.60;;;0.40;;
74941;SDS011;63506;49.346;8.798;2024-03-23T16:51:22;2.33;;;0.40;;
74941;SDS011;63506;49.346;8.798;2024-03-23T16:54:03;0.47;;;0.22;;
74941;SDS011;63506;49.346;8.798;2024-03-23T16:56:48;0.77;;;0.40;;
74941;SDS011;63506;49.346;8.798;2024-03-23T16:59:29;0.55;;;0.40;;
74941;SDS011;63506;49.346;8.798;2024-03-23T17:02:16;1.80;;;0.82;;
74941;SDS011;63506;49.346;8.798;2024-03-23T17:05:00;2.95;;;0.60;;
74941;SDS011;63506;49.346;8.798;2024-03-23T17:07:41;0.98;;;0.57;;
74941;SDS011;63506;49.346;8.798;2024-03-23T17:10:23;2.65;;;0.93;;
74941;SDS011;63506;49.346;8.798;2024-03-23T17:15:53;0.85;;;0.40;;
74941;SDS011;63506;49.346;8.798;2024-03-23T17:18:37;0.60;;;0.50;;
74941;SDS011;63506;49.346;8.798;2024-03-23T17:21:19;0.35;;;0.20;;
74941;SDS011;63506;49.346;8.798;2024-03-23T17:24:03;1.00;;;0.40;;
74941;SDS011;63506;49.346;8.798;2024-03-23T17:26:47;3.03;;;0.32;;
74941;SDS011;63506;49.346;8.798;2024-03-23T17:32:18;4.22;;;1.00;;
74941;SDS011;63506;49.346;8.798;2024-03-23T17:34:59;3.55;;;0.70;;
74941;SDS011;63506;49.346;8.798;2024-03-23T17:37:41;0.70;;;0.50;;
74941;SDS011;63506;49.346;8.798;2024-03-23T17:40:26;1.58;;;0.80;;
74941;SDS011;63506;49.346;8.798;2024-03-23T17:43:09;0.75;;;0.50;;
74941;SDS011;63506;49.346;8.798;2024-03-23T17:48:39;1.20;;;0.60;;
74941;SDS011;63506;49.346;8.798;2024-03-23T17:51:23;1.80;;;0.50;;
74941;SDS011;63506;49.346;8.798;2024-03-23T17:54:07;2.20;;;0.57;;
74941;SDS011;63506;49.346;8.798;2024-03-23T17:56:49;0.60;;;0.50;;
74941;SDS011;63506;49.346;8.798;2024-03-23T17:59:33;0.50;;;0.40;;
74941;SDS011;63506;49.346;8.798;2024-03-23T18:02:22;1.00;;;0.32;;
74941;SDS011;63506;49.346;8.798;2024-03-23T18:05:06;0.90;;;0.60;;
74941;SDS011;63506;49.346;8.798;2024-03-23T18:07:56;0.45;;;0.40;;
74941;SDS011;63506;49.346;8.798;2024-03-23T18:10:40;2.33;;;0.65;;